createdAt,value
2016-08-22T00:00:59.078Z,42.43
2016-08-22T00:01:59.103Z,42.53
2016-08-22T00:02:59.131Z,42.63
2016-08-22T00:03:59.155Z,42.63
2016-08-22T00:04:59.181Z,42.63
2016-08-22T00:05:59.908Z,43.11
2016-08-22T00:06:59.281Z,42.82
2016-08-22T00:07:59.253Z,43.01
2016-08-22T00:08:59.282Z,42.82
2016-08-22T00:09:59.306Z,42.82
2016-08-22T00:10:59.334Z,42.82
2016-08-22T00:11:59.355Z,42.72
2016-08-22T00:12:59.382Z,42.72
2016-08-22T00:13:59.402Z,42.72
2016-08-22T00:14:59.427Z,42.82
2016-08-22T00:15:59.470Z,42.82
2016-08-22T00:16:59.478Z,42.63
2016-08-22T00:17:59.503Z,42.7
2016-08-22T00:18:59.530Z,42.99
2016-08-22T00:19:59.553Z,42.89
2016-08-22T00:20:59.578Z,43.18
2016-08-22T00:21:59.607Z,43.11
2016-08-22T00:22:59.627Z,43.18
2016-08-22T00:23:59.659Z,43.18
2016-08-22T00:24:59.677Z,43.28
2016-08-22T00:25:59.702Z,43.47
2016-08-22T00:27:00.434Z,43.47
2016-08-22T00:27:59.749Z,43.37
2016-08-22T00:28:59.771Z,43.66
2016-08-22T00:29:59.801Z,43.08
2016-08-22T00:30:59.823Z,43.18
2016-08-22T00:31:59.846Z,43.28
2016-08-22T00:32:59.873Z,43.85
2016-08-22T00:33:59.900Z,43.18
2016-08-22T00:34:59.922Z,43.37
2016-08-22T00:35:59.952Z,43.37
2016-08-22T00:36:59.975Z,43.47
2016-08-22T00:37:59.998Z,43.47
2016-08-22T00:39:00.021Z,43.47
2016-08-22T00:40:00.046Z,43.28
2016-08-22T00:41:00.777Z,43.37
2016-08-22T00:42:00.097Z,43.95
2016-08-22T00:43:00.119Z,43.85
2016-08-22T00:44:00.149Z,43.95
2016-08-22T00:45:00.169Z,43.85
2016-08-22T00:46:00.199Z,43.66
2016-08-22T00:47:00.222Z,43.66
2016-08-22T00:48:00.951Z,43.66
2016-08-22T00:49:00.264Z,44.24
2016-08-22T00:50:00.294Z,44.24
2016-08-22T00:51:00.318Z,44.05
2016-08-22T00:52:00.340Z,44.14
2016-08-22T00:53:00.365Z,43.95
2016-08-22T00:54:00.390Z,44.24
2016-08-22T00:55:00.415Z,44.14
2016-08-22T00:56:00.440Z,44.05
2016-08-22T00:57:00.468Z,44.14
2016-08-22T00:58:01.205Z,44.14
2016-08-22T00:59:00.514Z,44.24
2016-08-22T01:00:00.535Z,44.24
2016-08-22T01:01:00.563Z,44.24
2016-08-22T01:02:00.592Z,44.34
2016-08-22T01:03:00.610Z,44.34
2016-08-22T01:04:00.639Z,44.62
2016-08-22T01:05:00.661Z,44.53
2016-08-22T01:06:00.682Z,44.62
2016-08-22T01:07:00.708Z,44.7
2016-08-22T01:08:00.735Z,44.62
2016-08-22T01:09:00.759Z,44.51
2016-08-22T01:10:01.486Z,44.51
2016-08-22T01:11:00.807Z,44.51
2016-08-22T01:12:01.534Z,44.79
2016-08-22T01:13:00.867Z,44.62
2016-08-22T01:14:00.877Z,44.72
2016-08-22T01:15:00.900Z,44.72
2016-08-22T01:16:00.935Z,44.91
2016-08-22T01:17:00.950Z,44.89
2016-08-22T01:18:00.972Z,44.7
2016-08-22T01:19:00.998Z,44.91
2016-08-22T01:20:01.024Z,44.79
2016-08-22T01:21:01.048Z,44.82
2016-08-22T01:22:01.078Z,44.89
2016-08-22T01:23:01.097Z,44.91
2016-08-22T01:24:01.124Z,44.89
2016-08-22T01:25:01.147Z,44.82
2016-08-22T01:26:01.169Z,44.99
2016-08-22T01:27:01.196Z,45.1
2016-08-22T01:28:01.223Z,45.08
2016-08-22T01:29:01.944Z,45.08
2016-08-22T01:30:01.269Z,44.89
2016-08-22T01:31:01.293Z,44.99
2016-08-22T01:32:01.317Z,44.91
2016-08-22T01:33:01.343Z,44.89
2016-08-22T01:34:01.365Z,44.99
2016-08-22T01:35:01.387Z,44.89
2016-08-22T01:36:01.412Z,44.79
2016-08-22T01:37:01.438Z,45.28
2016-08-22T01:38:01.467Z,45.18
2016-08-22T01:39:01.500Z,45.08
2016-08-22T01:40:01.510Z,45.28
2016-08-22T01:41:01.534Z,45.28
2016-08-22T01:42:01.563Z,45.28
2016-08-22T01:43:01.578Z,45.18
2016-08-22T01:44:01.603Z,45.37
2016-08-22T01:45:01.631Z,45.28
2016-08-22T01:46:01.658Z,45.37
2016-08-22T01:47:02.387Z,45.18
2016-08-22T01:48:01.702Z,45.37
2016-08-22T01:49:01.726Z,45.37
2016-08-22T01:50:01.750Z,45.37
2016-08-22T01:51:01.774Z,45.28
2016-08-22T01:52:01.800Z,45.37
2016-08-22T01:53:01.827Z,45.37
2016-08-22T01:54:01.849Z,45.37
2016-08-22T01:55:01.871Z,45.37
2016-08-22T01:56:01.898Z,45.56
2016-08-22T01:57:01.924Z,45.56
2016-08-22T01:58:01.941Z,45.47
2016-08-22T01:59:01.980Z,45.56
2016-08-22T02:00:01.992Z,45.66
2016-08-22T02:01:02.017Z,45.66
2016-08-22T02:02:02.042Z,45.66
2016-08-22T02:03:02.062Z,45.66
2016-08-22T02:04:02.087Z,45.56
2016-08-22T02:05:02.115Z,45.76
2016-08-22T02:06:02.152Z,45.76
2016-08-22T02:07:02.161Z,45.76
2016-08-22T02:08:02.199Z,45.95
2016-08-22T02:09:02.208Z,45.76
2016-08-22T02:10:02.237Z,45.85
2016-08-22T02:11:02.255Z,46.14
2016-08-22T02:12:02.290Z,46.04
2016-08-22T02:13:02.308Z,46.04
2016-08-22T02:14:02.329Z,45.95
2016-08-22T02:15:02.365Z,46.04
2016-08-22T02:16:02.384Z,45.95
2016-08-22T02:17:02.418Z,46.14
2016-08-22T02:18:02.438Z,46.14
2016-08-22T02:19:02.469Z,46.04
2016-08-22T02:20:03.422Z,46.23
2016-08-22T02:21:02.507Z,46.14
2016-08-22T02:22:02.526Z,45.85
2016-08-22T02:23:02.562Z,46.23
2016-08-22T02:24:02.573Z,46.23
2016-08-22T02:25:03.304Z,46.14
2016-08-22T02:26:02.727Z,46.23
2016-08-22T02:27:02.644Z,46.23
2016-08-22T02:28:02.682Z,46.53
2016-08-22T02:29:03.406Z,46.62
2016-08-22T02:30:02.717Z,46.53
2016-08-22T02:31:02.738Z,46.53
2016-08-22T02:32:02.765Z,46.62
2016-08-22T02:33:02.789Z,46.72
2016-08-22T02:34:02.824Z,46.62
2016-08-22T02:35:02.839Z,46.53
2016-08-22T02:36:03.578Z,46.53
2016-08-22T02:37:02.882Z,46.62
2016-08-22T02:38:02.912Z,46.72
2016-08-22T02:39:02.930Z,47.2
2016-08-22T02:40:02.966Z,47
2016-08-22T02:41:02.978Z,46.81
2016-08-22T02:42:03.012Z,47
2016-08-22T02:43:03.024Z,47
2016-08-22T02:44:03.057Z,46.81
2016-08-22T02:45:03.075Z,46.72
2016-08-22T02:46:03.111Z,47
2016-08-22T02:47:03.125Z,46.72
2016-08-22T02:48:03.167Z,46.81
2016-08-22T02:49:03.877Z,46.81
2016-08-22T02:50:03.205Z,46.81
2016-08-22T02:51:03.220Z,46.91
2016-08-22T02:52:03.250Z,46.89
2016-08-22T02:53:03.267Z,47
2016-08-22T02:54:03.301Z,46.81
2016-08-22T02:55:03.317Z,47
2016-08-22T02:56:03.348Z,46.91
2016-08-22T02:57:03.361Z,46.91
2016-08-22T02:58:03.385Z,46.81
2016-08-22T02:59:03.409Z,46.72
2016-08-22T03:00:03.433Z,46.81
2016-08-22T03:01:03.460Z,46.81
2016-08-22T03:02:03.502Z,46.81
2016-08-22T03:03:03.504Z,46.62
2016-08-22T03:04:03.529Z,46.81
2016-08-22T03:05:03.556Z,46.91
2016-08-22T03:06:03.578Z,47
2016-08-22T03:07:03.602Z,47.1
2016-08-22T03:08:03.624Z,46.91
2016-08-22T03:09:03.651Z,46.91
2016-08-22T03:10:03.672Z,47.2
2016-08-22T03:11:03.711Z,47.3
2016-08-22T03:12:03.721Z,47.27
2016-08-22T03:13:03.744Z,47.2
2016-08-22T03:14:03.776Z,47.1
2016-08-22T03:15:03.792Z,47
2016-08-22T03:16:03.818Z,47.3
2016-08-22T03:17:03.841Z,47.3
2016-08-22T03:18:03.867Z,47.58
2016-08-22T03:19:03.889Z,47.3
2016-08-22T03:20:03.911Z,47.3
2016-08-22T03:21:03.937Z,47.49
2016-08-22T03:22:03.960Z,47.49
2016-08-22T03:23:03.986Z,47.39
2016-08-22T03:24:04.008Z,47.87
2016-08-22T03:25:04.030Z,47.68
2016-08-22T03:26:04.812Z,47.27
2016-08-22T03:27:04.081Z,47.27
2016-08-22T03:28:04.100Z,47.39
2016-08-22T03:29:04.131Z,47.1
2016-08-22T03:30:04.151Z,47.3
2016-08-22T03:31:04.176Z,47.17
2016-08-22T03:32:04.199Z,47.08
2016-08-22T03:33:04.223Z,47.36
2016-08-22T03:34:04.248Z,47.68
2016-08-22T03:35:04.275Z,47.46
2016-08-22T03:36:04.292Z,47.85
2016-08-22T03:37:04.317Z,47.75
2016-08-22T03:38:04.345Z,47.85
2016-08-22T03:39:04.367Z,47.77
2016-08-22T03:40:04.389Z,47.87
2016-08-22T03:41:04.411Z,48.04
2016-08-22T03:42:04.550Z,47.87
2016-08-22T03:43:04.459Z,48.04
2016-08-22T03:44:04.596Z,47.94
2016-08-22T03:45:05.219Z,47.94
2016-08-22T03:46:04.578Z,47.94
2016-08-22T03:47:04.586Z,48.23
2016-08-22T03:48:04.596Z,48.23
2016-08-22T03:49:04.604Z,48.16
2016-08-22T03:50:04.740Z,48.35
2016-08-22T03:51:04.749Z,48.33
2016-08-22T03:52:04.794Z,48.35
2016-08-22T03:53:04.789Z,48.35
2016-08-22T03:54:04.797Z,48.23
2016-08-22T03:55:04.797Z,48.16
2016-08-22T03:56:04.807Z,48.16
2016-08-22T03:57:04.814Z,48.23
2016-08-22T03:58:04.864Z,48.25
2016-08-22T03:59:04.864Z,48.23
2016-08-22T04:00:04.872Z,48.61
2016-08-22T04:01:04.892Z,47.85
2016-08-22T04:02:04.910Z,48.25
2016-08-22T04:03:04.938Z,48.64
2016-08-22T04:04:04.962Z,48.52
2016-08-22T04:05:04.984Z,48.61
2016-08-22T04:06:05.010Z,48.54
2016-08-22T04:07:05.741Z,48.61
2016-08-22T04:08:05.056Z,48.61
2016-08-22T04:09:05.800Z,48.61
2016-08-22T04:10:05.104Z,47.85
2016-08-22T04:11:05.129Z,47.94
2016-08-22T04:12:05.150Z,48.61
2016-08-22T04:13:05.176Z,47.85
2016-08-22T04:14:05.200Z,48.61
2016-08-22T04:15:05.225Z,48.04
2016-08-22T04:16:05.248Z,48.43
2016-08-22T04:17:05.271Z,48.61
2016-08-22T04:18:05.294Z,48.43
2016-08-22T04:19:05.317Z,48.52
2016-08-22T04:20:05.342Z,48.52
2016-08-22T04:21:05.365Z,47.94
2016-08-22T04:22:05.388Z,47.85
2016-08-22T04:23:05.410Z,48.61
2016-08-22T04:24:05.432Z,48.61
2016-08-22T04:25:05.463Z,47.85
2016-08-22T04:26:05.482Z,48.52
2016-08-22T04:27:05.504Z,48.61
2016-08-22T04:28:05.531Z,48.52
2016-08-22T04:29:05.557Z,48.04
2016-08-22T04:30:05.585Z,48.04
2016-08-22T04:31:05.602Z,48.04
2016-08-22T04:32:05.629Z,48.23
2016-08-22T04:33:05.650Z,48.04
2016-08-22T04:34:05.672Z,48.43
2016-08-22T04:35:05.698Z,48.43
2016-08-22T04:36:05.723Z,48.43
2016-08-22T04:37:05.948Z,48.33
2016-08-22T04:38:05.771Z,48.33
2016-08-22T04:39:05.790Z,48.23
2016-08-22T04:40:05.816Z,48.52
2016-08-22T04:41:05.890Z,48.61
2016-08-22T04:42:05.863Z,48.43
2016-08-22T04:43:05.884Z,48.43
2016-08-22T04:44:05.911Z,48.23
2016-08-22T04:45:05.933Z,48.61
2016-08-22T04:46:05.960Z,48.52
2016-08-22T04:47:05.982Z,48.71
2016-08-22T04:48:06.002Z,48.71
2016-08-22T04:49:06.029Z,49.19
2016-08-22T04:50:06.054Z,48.9
2016-08-22T04:51:06.076Z,48.9
2016-08-22T04:52:06.101Z,48.9
2016-08-22T04:53:06.125Z,48.81
2016-08-22T04:54:06.349Z,48.81
2016-08-22T04:55:06.170Z,48.81
2016-08-22T04:56:06.197Z,48.81
2016-08-22T04:57:06.219Z,48.93
2016-08-22T04:58:06.252Z,48.61
2016-08-22T04:59:06.271Z,48.81
2016-08-22T05:00:06.293Z,48.74
2016-08-22T05:01:06.315Z,48.74
2016-08-22T05:02:06.346Z,48.74
2016-08-22T05:03:06.410Z,48.81
2016-08-22T05:04:06.387Z,48.81
2016-08-22T05:05:06.421Z,48.74
2016-08-22T05:06:06.432Z,48.9
2016-08-22T05:07:06.565Z,48.74
2016-08-22T05:08:06.566Z,48.64
2016-08-22T05:09:06.594Z,48.74
2016-08-22T05:10:06.620Z,48.74
2016-08-22T05:11:06.725Z,48.81
2016-08-22T05:12:06.733Z,49.1
2016-08-22T05:13:06.738Z,49.1
2016-08-22T05:14:06.750Z,49.6
2016-08-22T05:15:06.750Z,49.41
2016-08-22T05:16:06.760Z,49.41
2016-08-22T05:17:06.898Z,49.41
2016-08-22T05:18:07.615Z,49.31
2016-08-22T05:19:06.925Z,49.41
2016-08-22T05:20:06.923Z,49.41
2016-08-22T05:21:06.934Z,49.22
2016-08-22T05:22:06.940Z,49.31
2016-08-22T05:23:06.910Z,49.51
2016-08-22T05:24:06.907Z,49.41
2016-08-22T05:25:06.917Z,49.51
2016-08-22T05:26:06.926Z,49.31
2016-08-22T05:27:06.941Z,49.38
2016-08-22T05:28:06.960Z,49.99
2016-08-22T05:29:06.980Z,49.22
2016-08-22T05:30:07.009Z,49.31
2016-08-22T05:31:07.029Z,49.31
2016-08-22T05:32:07.048Z,49.31
2016-08-22T05:33:07.078Z,49.31
2016-08-22T05:34:07.099Z,49.69
2016-08-22T05:35:07.125Z,49.51
2016-08-22T05:36:07.229Z,49.31
2016-08-22T05:37:07.170Z,49.6
2016-08-22T05:38:07.193Z,49.41
2016-08-22T05:39:07.220Z,49.51
2016-08-22T05:40:07.259Z,49.51
2016-08-22T05:41:07.264Z,49.31
2016-08-22T05:42:07.289Z,49.69
2016-08-22T05:43:07.309Z,49.79
2016-08-22T05:44:07.334Z,49.41
2016-08-22T05:45:07.360Z,50.08
2016-08-22T05:46:07.387Z,49.41
2016-08-22T05:47:07.410Z,49.51
2016-08-22T05:48:07.476Z,49.41
2016-08-22T05:49:08.163Z,49.51
2016-08-22T05:50:07.481Z,49.51
2016-08-22T05:51:07.551Z,49.41
2016-08-22T05:52:07.526Z,49.22
2016-08-22T05:53:08.257Z,49.31
2016-08-22T05:54:07.572Z,49.41
2016-08-22T05:55:07.611Z,49.31
2016-08-22T05:56:07.622Z,49.51
2016-08-22T05:57:07.666Z,49.22
2016-08-22T05:58:07.676Z,49.31
2016-08-22T05:59:07.693Z,49.31
2016-08-22T06:00:07.717Z,49.79
2016-08-22T06:01:07.744Z,49.41
2016-08-22T06:02:07.764Z,49.51
2016-08-22T06:03:07.788Z,49.51
2016-08-22T06:04:08.017Z,49.41
2016-08-22T06:05:07.837Z,49.89
2016-08-22T06:06:07.859Z,50.08
2016-08-22T06:07:07.898Z,49.31
2016-08-22T06:08:07.910Z,49.51
2016-08-22T06:09:07.932Z,50.08
2016-08-22T06:10:08.665Z,49.6
2016-08-22T06:11:07.980Z,49.41
2016-08-22T06:12:08.003Z,49.33
2016-08-22T06:13:08.036Z,49.6
2016-08-22T06:14:08.060Z,49.41
2016-08-22T06:15:08.077Z,49.43
2016-08-22T06:16:08.103Z,49.82
2016-08-22T06:17:08.176Z,49.72
2016-08-22T06:18:08.147Z,49.63
2016-08-22T06:19:08.176Z,49.91
2016-08-22T06:20:08.201Z,49.63
2016-08-22T06:21:08.225Z,50.3
2016-08-22T06:22:08.245Z,49.72
2016-08-22T06:23:08.271Z,49.91
2016-08-22T06:24:08.295Z,49.91
2016-08-22T06:25:08.318Z,49.91
2016-08-22T06:26:08.341Z,49.72
2016-08-22T06:27:08.366Z,50.1
2016-08-22T06:28:08.400Z,49.72
2016-08-22T06:29:08.415Z,49.72
2016-08-22T06:30:08.439Z,49.82
2016-08-22T06:31:09.165Z,49.91
2016-08-22T06:32:08.486Z,49.82
2016-08-22T06:33:08.535Z,50.13
2016-08-22T06:34:08.540Z,49.84
2016-08-22T06:35:08.556Z,50.04
2016-08-22T06:36:08.580Z,49.94
2016-08-22T06:37:08.605Z,49.84
2016-08-22T06:38:08.631Z,50.04
2016-08-22T06:39:08.657Z,49.94
2016-08-22T06:40:08.678Z,49.84
2016-08-22T06:41:08.707Z,49.55
2016-08-22T06:42:08.736Z,49.55
2016-08-22T06:43:08.751Z,49.65
2016-08-22T06:44:08.777Z,50.04
2016-08-22T06:45:08.814Z,49.46
2016-08-22T06:46:08.828Z,49.55
2016-08-22T06:47:08.849Z,50.25
2016-08-22T06:48:08.869Z,49.58
2016-08-22T06:49:08.900Z,49.68
2016-08-22T06:50:08.920Z,49.58
2016-08-22T06:51:08.944Z,49.38
2016-08-22T06:52:08.975Z,49.48
2016-08-22T06:53:08.995Z,49.38
2016-08-22T06:54:09.018Z,49.38
2016-08-22T06:55:09.043Z,49.51
2016-08-22T06:56:09.278Z,49.51
2016-08-22T06:57:09.089Z,49.41
2016-08-22T06:58:09.116Z,49.6
2016-08-22T06:59:09.145Z,49.41
2016-08-22T07:00:09.180Z,49.32
2016-08-22T07:01:09.191Z,49.51
2016-08-22T07:02:09.221Z,49.51
2016-08-22T07:03:09.240Z,49.6
2016-08-22T07:04:09.976Z,49.12
2016-08-22T07:05:09.288Z,49.02
2016-08-22T07:06:09.322Z,49.32
2016-08-22T07:07:09.340Z,49.02
2016-08-22T07:08:09.366Z,48.86
2016-08-22T07:09:09.388Z,48.44
2016-08-22T07:10:09.413Z,48.76
2016-08-22T07:11:09.440Z,48.38
2016-08-22T07:12:09.463Z,48.66
2016-08-22T07:13:10.206Z,48.76
2016-08-22T07:14:09.516Z,48.57
2016-08-22T07:15:09.536Z,48.38
2016-08-22T07:16:09.562Z,48.38
2016-08-22T07:17:09.591Z,48.38
2016-08-22T07:18:09.609Z,48.38
2016-08-22T07:19:09.687Z,48.28
2016-08-22T07:20:09.662Z,48.47
2016-08-22T07:21:09.686Z,48.76
2016-08-22T07:22:09.710Z,48.18
2016-08-22T07:23:09.788Z,48.28
2016-08-22T07:24:09.761Z,48.3
2016-08-22T07:25:09.785Z,48.3
2016-08-22T07:26:09.811Z,48.4
2016-08-22T07:27:09.833Z,48.3
2016-08-22T07:28:09.859Z,48.4
2016-08-22T07:29:09.884Z,48.11
2016-08-22T07:30:09.912Z,47.82
2016-08-22T07:31:09.935Z,47.92
2016-08-22T07:32:09.967Z,47.53
2016-08-22T07:33:09.989Z,47.53
2016-08-22T07:34:10.010Z,47.34
2016-08-22T07:35:10.036Z,47.53
2016-08-22T07:36:10.064Z,47.72
2016-08-22T07:37:10.087Z,47.75
2016-08-22T07:38:10.119Z,47.17
2016-08-22T07:39:10.135Z,47.45
2016-08-22T07:40:10.167Z,47.65
2016-08-22T07:41:10.187Z,47.27
2016-08-22T07:42:10.217Z,47.27
2016-08-22T07:43:10.240Z,47.07
2016-08-22T07:44:10.262Z,47.07
2016-08-22T07:45:10.289Z,46.88
2016-08-22T07:46:10.316Z,47
2016-08-22T07:47:10.343Z,46.88
2016-08-22T07:48:10.366Z,46.78
2016-08-22T07:49:10.393Z,47.17
2016-08-22T07:50:10.422Z,46.51
2016-08-22T07:51:10.440Z,46.71
2016-08-22T07:52:10.469Z,46.81
2016-08-22T07:53:10.493Z,46.71
2016-08-22T07:54:10.518Z,46.61
2016-08-22T07:55:10.543Z,46.61
2016-08-22T07:56:10.571Z,46.51
2016-08-22T07:57:10.598Z,46.42
2016-08-22T07:58:10.618Z,46.23
2016-08-22T07:59:10.649Z,46.33
2016-08-22T08:00:10.710Z,46.23
2016-08-22T08:01:10.696Z,46.33
2016-08-22T08:02:10.724Z,46.13
2016-08-22T08:03:10.749Z,46.23
2016-08-22T08:04:10.777Z,46.23
2016-08-22T08:05:10.799Z,46.33
2016-08-22T08:06:10.828Z,46.03
2016-08-22T08:07:10.853Z,46.03
2016-08-22T08:08:10.878Z,45.94
2016-08-22T08:09:10.904Z,46.15
2016-08-22T08:10:10.941Z,46.15
2016-08-22T08:11:10.952Z,46.06
2016-08-22T08:12:10.979Z,46.25
2016-08-22T08:13:11.007Z,46.06
2016-08-22T08:14:11.032Z,45.86
2016-08-22T08:15:11.058Z,45.86
2016-08-22T08:16:11.086Z,45.96
2016-08-22T08:17:11.109Z,45.86
2016-08-22T08:18:11.139Z,45.76
2016-08-22T08:19:11.165Z,45.86
2016-08-22T08:20:11.187Z,45.76
2016-08-22T08:21:11.213Z,45.57
2016-08-22T08:22:11.239Z,45.48
2016-08-22T08:23:11.265Z,45.67
2016-08-22T08:24:11.290Z,45.48
2016-08-22T08:25:11.317Z,45.28
2016-08-22T08:26:11.346Z,45.18
2016-08-22T08:27:11.369Z,45.18
2016-08-22T08:28:11.397Z,44.92
2016-08-22T08:29:11.422Z,45.01
2016-08-22T08:30:11.452Z,45.11
2016-08-22T08:31:11.473Z,44.92
2016-08-22T08:32:11.516Z,44.92
2016-08-22T08:33:11.529Z,44.92
2016-08-22T08:34:11.551Z,44.82
2016-08-22T08:35:11.579Z,44.63
2016-08-22T08:36:11.607Z,44.43
2016-08-22T08:37:11.631Z,44.34
2016-08-22T08:38:11.661Z,44.05
2016-08-22T08:39:11.683Z,43.98
2016-08-22T08:40:11.713Z,44.07
2016-08-22T08:41:11.738Z,43.47
2016-08-22T08:42:11.816Z,43.57
2016-08-22T08:43:11.792Z,43.68
2016-08-22T08:44:11.818Z,43.49
2016-08-22T08:45:11.841Z,43.68
2016-08-22T08:46:11.871Z,43.98
2016-08-22T08:47:11.893Z,43.88
2016-08-22T08:48:11.919Z,43.59
2016-08-22T08:49:11.947Z,43.01
2016-08-22T08:50:11.973Z,43.01
2016-08-22T08:51:11.999Z,42.83
2016-08-22T08:52:12.028Z,42.93
2016-08-22T08:53:12.053Z,42.83
2016-08-22T08:54:12.087Z,43.32
2016-08-22T08:55:12.105Z,42.74
2016-08-22T08:56:12.136Z,42.65
2016-08-22T08:57:12.158Z,42.35
2016-08-22T08:58:12.185Z,42.65
2016-08-22T08:59:12.226Z,42.35
2016-08-22T09:00:12.236Z,42.07
2016-08-22T09:01:12.265Z,41.87
2016-08-22T09:02:12.293Z,41.67
2016-08-22T09:03:12.323Z,41.87
2016-08-22T09:04:12.550Z,41.89
2016-08-22T09:05:12.373Z,41.89
2016-08-22T09:06:12.395Z,41.7
2016-08-22T09:07:12.426Z,41.02
2016-08-22T09:08:12.453Z,41.7
2016-08-22T09:09:12.477Z,41.41
2016-08-22T09:10:12.508Z,41.31
2016-08-22T09:11:12.543Z,41.31
2016-08-22T09:12:12.561Z,41.41
2016-08-22T09:13:12.586Z,41.6
2016-08-22T09:14:12.615Z,41.24
2016-08-22T09:15:12.645Z,41.31
2016-08-22T09:16:12.670Z,41.42
2016-08-22T09:17:12.693Z,41.52
2016-08-22T09:18:12.724Z,41.52
2016-08-22T09:19:12.756Z,41.33
2016-08-22T09:20:12.776Z,41.14
2016-08-22T09:21:12.802Z,41.24
2016-08-22T09:22:12.829Z,40.75
2016-08-22T09:23:12.857Z,40.77
2016-08-22T09:24:12.882Z,40.67
2016-08-22T09:25:12.914Z,40.38
2016-08-22T09:26:12.937Z,40.38
2016-08-22T09:27:13.671Z,40.28
2016-08-22T09:28:12.987Z,40.09
2016-08-22T09:29:13.634Z,39.92
2016-08-22T09:30:13.044Z,39.92
2016-08-22T09:31:13.070Z,39.72
2016-08-22T09:32:13.104Z,39.53
2016-08-22T09:33:13.842Z,39.14
2016-08-22T09:34:13.154Z,39.14
2016-08-22T09:35:13.189Z,39.04
2016-08-22T09:36:13.209Z,38.87
2016-08-22T09:37:13.239Z,38.78
2016-08-22T09:38:13.266Z,38.48
2016-08-22T09:39:13.293Z,38.68
2016-08-22T09:40:13.328Z,38.68
2016-08-22T09:41:13.346Z,38.78
2016-08-22T09:42:13.424Z,38.39
2016-08-22T09:43:13.404Z,37.9
2016-08-22T09:44:13.446Z,37.23
2016-08-22T09:45:13.458Z,38
2016-08-22T09:46:13.484Z,38.02
2016-08-22T09:47:13.512Z,37.41
2016-08-22T09:48:13.541Z,37.63
2016-08-22T09:49:13.571Z,38.02
2016-08-22T09:50:13.596Z,37.53
2016-08-22T09:51:13.678Z,37.05
2016-08-22T09:52:13.654Z,37.05
2016-08-22T09:53:13.679Z,37.24
2016-08-22T09:54:13.913Z,36.95
2016-08-22T09:55:13.740Z,36.95
2016-08-22T09:56:13.763Z,36.85
2016-08-22T09:57:13.791Z,36.87
2016-08-22T09:58:13.833Z,36.95
2016-08-22T09:59:13.844Z,36.66
2016-08-22T10:00:13.875Z,36.58
2016-08-22T10:01:13.905Z,36.1
2016-08-22T10:02:14.645Z,35.8
2016-08-22T10:03:13.961Z,35.9
2016-08-22T10:04:13.985Z,36.19
2016-08-22T10:05:14.015Z,35.71
2016-08-22T10:06:14.042Z,35.72
2016-08-22T10:07:14.076Z,35.63
2016-08-22T10:08:14.101Z,35.63
2016-08-22T10:09:14.128Z,35.72
2016-08-22T10:10:14.164Z,35.74
2016-08-22T10:11:14.188Z,35.25
2016-08-22T10:12:14.213Z,34.97
2016-08-22T10:13:14.243Z,34.77
2016-08-22T10:14:14.270Z,34.28
2016-08-22T10:15:14.301Z,34.58
2016-08-22T10:16:14.339Z,34.28
2016-08-22T10:17:14.358Z,34.2
2016-08-22T10:18:14.383Z,33.91
2016-08-22T10:19:14.410Z,34.2
2016-08-22T10:20:14.441Z,33.91
2016-08-22T10:21:14.468Z,33.62
2016-08-22T10:22:14.499Z,33.72
2016-08-22T10:23:14.542Z,33.53
2016-08-22T10:24:14.608Z,33.72
2016-08-22T10:25:14.584Z,33.43
2016-08-22T10:26:14.615Z,33.62
2016-08-22T10:27:14.643Z,33.53
2016-08-22T10:28:14.671Z,33.14
2016-08-22T10:29:14.706Z,33.23
2016-08-22T10:30:14.728Z,33.14
2016-08-22T10:31:14.754Z,33.23
2016-08-22T10:32:14.788Z,33.04
2016-08-22T10:33:14.815Z,33.33
2016-08-22T10:34:14.842Z,33.33
2016-08-22T10:35:14.881Z,33.53
2016-08-22T10:36:14.906Z,32.65
2016-08-22T10:37:14.993Z,32.67
2016-08-22T10:38:14.957Z,32.57
2016-08-22T10:39:14.989Z,32.47
2016-08-22T10:40:15.016Z,32.57
2016-08-22T10:41:15.046Z,32.57
2016-08-22T10:42:15.078Z,32.47
2016-08-22T10:43:15.104Z,32.57
2016-08-22T10:44:15.849Z,32.57
2016-08-22T10:45:15.170Z,32.57
2016-08-22T10:46:15.191Z,32.57
2016-08-22T10:47:15.224Z,32.86
2016-08-22T10:48:15.249Z,32.78
2016-08-22T10:49:15.285Z,33.07
2016-08-22T10:50:15.309Z,32.39
2016-08-22T10:51:15.336Z,32.39
2016-08-22T10:52:15.375Z,32.49
2016-08-22T10:53:15.396Z,32.4
2016-08-22T10:54:15.434Z,32.49
2016-08-22T10:55:15.458Z,32.11
2016-08-22T10:56:15.485Z,32.23
2016-08-22T10:57:15.514Z,31.82
2016-08-22T10:58:15.613Z,30.77
2016-08-22T10:59:15.572Z,30.57
2016-08-22T11:00:16.312Z,30.96
2016-08-22T11:01:16.349Z,30.49
2016-08-22T11:02:15.665Z,30
2016-08-22T11:03:15.694Z,29.81
2016-08-22T11:04:15.722Z,29.91
2016-08-22T11:05:15.753Z,29.42
2016-08-22T11:06:15.783Z,29.24
2016-08-22T11:07:15.813Z,29.43
2016-08-22T11:08:15.843Z,29.04
2016-08-22T11:09:15.877Z,29.14
2016-08-22T11:10:15.899Z,29.33
2016-08-22T11:11:15.931Z,28.85
2016-08-22T11:12:15.961Z,28.47
2016-08-22T11:13:15.989Z,28.57
2016-08-22T11:14:16.023Z,28.86
2016-08-22T11:15:16.054Z,28.68
2016-08-22T11:16:16.083Z,28.39
2016-08-22T11:17:16.146Z,28.19
2016-08-22T11:18:16.847Z,27.7
2016-08-22T11:19:16.171Z,27.8
2016-08-22T11:20:16.204Z,28.19
2016-08-22T11:21:16.233Z,27.7
2016-08-22T11:22:16.264Z,28
2016-08-22T11:23:17.000Z,27.41
2016-08-22T11:24:16.322Z,27.41
2016-08-22T11:25:16.355Z,27.8
2016-08-22T11:26:16.386Z,27.51
2016-08-22T11:27:16.416Z,27.41
2016-08-22T11:28:16.648Z,27.22
2016-08-22T11:29:16.479Z,27.31
2016-08-22T11:30:16.508Z,27.02
2016-08-22T11:31:16.539Z,27.12
2016-08-22T11:32:16.569Z,26.43
2016-08-22T11:33:16.598Z,26.92
2016-08-22T11:34:16.690Z,27.31
2016-08-22T11:35:16.664Z,27.12
2016-08-22T11:36:16.692Z,27.22
2016-08-22T11:37:16.722Z,27.22
2016-08-22T11:38:16.757Z,26.82
2016-08-22T11:39:16.784Z,27.3
2016-08-22T11:40:16.825Z,27.2
2016-08-22T11:41:16.848Z,26.91
2016-08-22T11:42:16.877Z,27.31
2016-08-22T11:43:17.616Z,27.01
2016-08-22T11:44:17.053Z,27.2
2016-08-22T11:45:16.968Z,27.2
2016-08-22T11:46:17.000Z,27.2
2016-08-22T11:47:17.151Z,27.11
2016-08-22T11:48:17.065Z,27.01
2016-08-22T11:49:17.219Z,26.62
2016-08-22T11:50:17.127Z,26.32
2016-08-22T11:51:17.158Z,26.52
2016-08-22T11:52:17.190Z,26.52
2016-08-22T11:53:17.220Z,26.23
2016-08-22T11:54:17.248Z,26.23
2016-08-22T11:55:17.344Z,26.23
2016-08-22T11:56:17.312Z,26.32
2016-08-22T11:57:17.348Z,26.62
2016-08-22T11:58:17.375Z,26.23
2016-08-22T11:59:17.405Z,26.52
2016-08-22T12:00:17.439Z,27
2016-08-22T12:01:17.466Z,26.61
2016-08-22T12:02:17.505Z,26.51
2016-08-22T12:03:17.542Z,26.7
2016-08-22T12:04:17.564Z,26.61
2016-08-22T12:05:17.591Z,26.9
2016-08-22T12:06:17.624Z,27.19
2016-08-22T12:07:17.657Z,27.19
2016-08-22T12:08:17.797Z,27.29
2016-08-22T12:09:17.717Z,27.08
2016-08-22T12:10:17.748Z,27.28
2016-08-22T12:11:17.784Z,27.28
2016-08-22T12:12:17.818Z,27.56
2016-08-22T12:13:17.843Z,27.37
2016-08-22T12:14:17.984Z,26.98
2016-08-22T12:15:18.020Z,27.37
2016-08-22T12:16:18.643Z,27.37
2016-08-22T12:17:17.965Z,27.29
2016-08-22T12:18:17.996Z,26.9
2016-08-22T12:19:18.042Z,27.09
2016-08-22T12:20:18.065Z,27.29
2016-08-22T12:21:18.090Z,27.19
2016-08-22T12:22:18.129Z,27.28
2016-08-22T12:23:18.151Z,27.39
2016-08-22T12:24:18.192Z,27.29
2016-08-22T12:25:18.272Z,27
2016-08-22T12:26:18.303Z,27.19
2016-08-22T12:27:18.551Z,26.8
2016-08-22T12:28:18.311Z,27.19
2016-08-22T12:29:18.338Z,27
2016-08-22T12:30:18.493Z,27.19
2016-08-22T12:31:18.402Z,27.29
2016-08-22T12:32:18.432Z,27.19
2016-08-22T12:33:18.466Z,27.19
2016-08-22T12:34:18.523Z,27
2016-08-22T12:35:18.528Z,27.39
2016-08-22T12:36:18.556Z,27.48
2016-08-22T12:37:18.589Z,27.29
2016-08-22T12:38:18.626Z,27.39
2016-08-22T12:39:18.650Z,27.39
2016-08-22T12:40:18.686Z,27.01
2016-08-22T12:41:18.719Z,27.19
2016-08-22T12:42:18.742Z,26.51
2016-08-22T12:43:18.832Z,26.52
2016-08-22T12:44:18.814Z,26.52
2016-08-22T12:45:18.837Z,26.51
2016-08-22T12:46:18.871Z,27.3
2016-08-22T12:47:18.900Z,26.91
2016-08-22T12:48:18.934Z,27.3
2016-08-22T12:49:18.966Z,27.2
2016-08-22T12:50:18.996Z,26.42
2016-08-22T12:51:19.141Z,26.62
2016-08-22T12:52:19.059Z,26.23
2016-08-22T12:53:19.089Z,26.52
2016-08-22T12:54:19.120Z,26.32
2016-08-22T12:55:19.155Z,26.72
2016-08-22T12:56:19.182Z,26.51
2016-08-22T12:57:19.213Z,26.52